createdAt,value
2023-04-19T00:02:06.803Z,27.25
2023-04-19T00:04:33.676Z,24.92
2023-04-19T00:07:00.557Z,27.08
2023-04-19T00:09:27.391Z,24.40
2023-04-19T00:11:54.085Z,25.67
2023-04-19T00:14:20.801Z,22.85
2023-04-19T00:16:47.671Z,25.92
2023-04-19T00:19:14.692Z,23.90
2023-04-19T00:21:41.426Z,25.13
2023-04-19T00:24:08.325Z,28.23
2023-04-19T00:26:35.017Z,21.63
2023-04-19T00:29:01.789Z,23.73
2023-04-19T00:31:28.704Z,24.13
2023-04-19T00:33:55.597Z,24.40
2023-04-19T00:36:23.407Z,22.80
2023-04-19T00:38:50.206Z,20.98
2023-04-19T00:41:16.900Z,24.77
2023-04-19T00:43:43.773Z,27.55
2023-04-19T00:46:10.703Z,24.23
2023-04-19T00:48:37.656Z,23.70
2023-04-19T00:51:05.075Z,21.13
2023-04-19T00:53:31.788Z,21.33
2023-04-19T00:56:02.147Z,21.77
2023-04-19T00:58:31.577Z,23.33
2023-04-19T01:00:59.796Z,25.80
2023-04-19T01:03:30.209Z,23.00
2023-04-19T01:08:24.344Z,23.35
2023-04-19T01:10:51.218Z,21.52
2023-04-19T01:13:17.930Z,26.00
2023-04-19T01:15:44.821Z,25.20
2023-04-19T01:18:11.632Z,24.25
2023-04-19T01:20:38.338Z,21.92
2023-04-19T01:23:05.006Z,25.23
2023-04-19T01:25:31.886Z,23.65
2023-04-19T01:27:58.606Z,20.83
2023-04-19T01:30:25.284Z,21.00
2023-04-19T01:32:52.175Z,20.75
2023-04-19T01:35:19.012Z,20.75
2023-04-19T01:37:45.728Z,20.67
2023-04-19T01:40:12.935Z,21.52
2023-04-19T01:42:39.621Z,20.52
2023-04-19T01:45:06.842Z,21.60
2023-04-19T01:47:33.613Z,23.52
2023-04-19T01:50:00.320Z,22.15
2023-04-19T01:52:27.145Z,22.23
2023-04-19T01:54:53.836Z,24.27
2023-04-19T01:57:20.729Z,19.83
2023-04-19T01:59:47.409Z,20.10
2023-04-19T02:02:14.184Z,20.48
2023-04-19T02:04:41.135Z,20.85
2023-04-19T02:07:07.951Z,21.73
2023-04-19T02:09:38.293Z,22.15
2023-04-19T02:12:05.891Z,21.50
2023-04-19T02:14:32.710Z,23.15
2023-04-19T02:16:59.420Z,20.88
2023-04-19T02:19:26.092Z,22.90
2023-04-19T02:21:57.493Z,20.30
2023-04-19T02:24:24.955Z,20.95
2023-04-19T02:26:51.936Z,20.50
2023-04-19T02:29:19.074Z,22.42
2023-04-19T02:31:46.574Z,21.38
2023-04-19T02:34:13.567Z,21.48
2023-04-19T02:36:40.432Z,21.50
2023-04-19T02:39:07.473Z,19.58
2023-04-19T02:41:34.132Z,20.33
2023-04-19T02:44:00.871Z,23.30
2023-04-19T02:46:27.761Z,21.25
2023-04-19T02:48:54.509Z,22.85
2023-04-19T02:51:21.267Z,23.30
2023-04-19T02:53:47.990Z,21.20
2023-04-19T02:56:15.576Z,22.52
2023-04-19T02:58:42.290Z,21.33
2023-04-19T03:01:09.993Z,19.80
2023-04-19T03:03:36.863Z,19.65
2023-04-19T03:06:03.758Z,18.73
2023-04-19T03:08:30.594Z,21.67
2023-04-19T03:10:57.288Z,19.73
2023-04-19T03:13:24.045Z,24.60
2023-04-19T03:15:51.175Z,19.40
2023-04-19T03:18:18.006Z,19.35
2023-04-19T03:20:44.705Z,19.02
2023-04-19T03:23:11.519Z,21.85
2023-04-19T03:25:38.203Z,20.38
2023-04-19T03:28:05.004Z,21.98
2023-04-19T03:30:31.762Z,22.08
2023-04-19T03:33:00.261Z,23.45
2023-04-19T03:35:29.290Z,21.75
2023-04-19T03:37:55.979Z,23.65
2023-04-19T03:40:22.762Z,19.98
2023-04-19T03:42:49.465Z,23.50
2023-04-19T03:45:16.208Z,19.63
2023-04-19T03:47:43.023Z,20.75
2023-04-19T03:50:10.182Z,24.40
2023-04-19T03:52:36.871Z,24.60
2023-04-19T03:55:03.904Z,24.33
2023-04-19T03:57:30.596Z,23.30
2023-04-19T03:59:57.284Z,23.63
2023-04-19T04:02:24.135Z,24.60
2023-04-19T04:04:55.205Z,22.77
2023-04-19T04:07:23.335Z,22.55
2023-04-19T04:09:50.671Z,24.80
2023-04-19T04:12:17.475Z,25.05
2023-04-19T04:14:44.430Z,23.67
2023-04-19T04:17:11.200Z,23.15
2023-04-19T04:19:38.059Z,26.23
2023-04-19T04:22:06.030Z,24.40
2023-04-19T04:24:44.477Z,27.98
2023-04-19T04:27:11.379Z,24.65
2023-04-19T04:29:39.025Z,23.77
2023-04-19T04:32:10.618Z,26.23
2023-04-19T04:34:38.382Z,23.92
2023-04-19T04:37:05.766Z,26.95
2023-04-19T04:39:35.357Z,25.60
2023-04-19T04:42:02.431Z,29.63
2023-04-19T04:44:29.184Z,25.90
2023-04-19T04:46:55.865Z,28.48
2023-04-19T04:49:22.558Z,25.25
2023-04-19T04:51:49.257Z,26.70
2023-04-19T04:54:16.152Z,24.42
2023-04-19T04:56:43.061Z,24.50
2023-04-19T04:59:09.888Z,25.00
2023-04-19T05:01:36.617Z,29.92
2023-04-19T05:04:03.362Z,27.80
2023-04-19T05:06:30.152Z,18.98
2023-04-19T05:08:56.796Z,15.10
2023-04-19T05:11:23.634Z,14.98
2023-04-19T05:13:50.388Z,11.35
2023-04-19T05:16:17.072Z,10.25
2023-04-19T05:18:44.244Z,9.10
2023-04-19T05:21:11.146Z,12.45
2023-04-19T05:23:38.467Z,9.88
2023-04-19T05:26:05.668Z,10.52
2023-04-19T05:28:32.366Z,10.15
2023-04-19T05:30:59.147Z,5.82
2023-04-19T05:33:25.987Z,3.78
2023-04-19T05:35:52.665Z,7.72
2023-04-19T05:38:19.389Z,4.97
2023-04-19T05:40:46.474Z,2.88
2023-04-19T05:43:13.178Z,6.57
2023-04-19T05:45:39.865Z,11.73
2023-04-19T05:48:06.994Z,5.47
2023-04-19T05:50:34.779Z,5.63
2023-04-19T05:53:01.481Z,7.10
2023-04-19T05:55:28.198Z,9.57
2023-04-19T05:57:54.938Z,2.85
2023-04-19T06:00:21.772Z,4.88
2023-04-19T06:02:48.764Z,5.38
2023-04-19T06:05:15.690Z,4.75
2023-04-19T06:07:47.227Z,4.70
2023-04-19T06:10:22.066Z,2.75
2023-04-19T06:12:48.843Z,5.57
2023-04-19T06:15:15.673Z,5.72
2023-04-19T06:17:42.457Z,5.97
2023-04-19T06:20:10.279Z,10.50
2023-04-19T06:22:43.610Z,7.32
2023-04-19T06:25:10.414Z,9.13
2023-04-19T06:27:37.111Z,6.15
2023-04-19T06:30:04.335Z,6.38
2023-04-19T06:32:31.158Z,8.77
2023-04-19T06:34:57.827Z,14.48
2023-04-19T06:37:24.550Z,11.75
2023-04-19T06:39:51.377Z,7.22
2023-04-19T06:42:20.068Z,7.97
2023-04-19T06:44:46.983Z,7.97
2023-04-19T06:47:13.651Z,7.65
2023-04-19T06:49:40.317Z,5.53
2023-04-19T06:52:07.211Z,9.55
2023-04-19T06:54:33.939Z,6.28
2023-04-19T06:57:11.012Z,4.15
2023-04-19T06:59:39.839Z,5.22
2023-04-19T07:02:08.053Z,7.97
2023-04-19T07:04:39.409Z,5.60
2023-04-19T07:07:06.291Z,4.78
2023-04-19T07:09:35.628Z,4.63
2023-04-19T07:12:04.887Z,3.72
2023-04-19T07:14:35.553Z,7.45
2023-04-19T07:17:10.497Z,5.97
2023-04-19T07:19:37.472Z,4.80
2023-04-19T07:22:06.228Z,5.93
2023-04-19T07:24:34.355Z,11.68
2023-04-19T07:27:01.825Z,4.97
2023-04-19T07:29:28.671Z,7.38
2023-04-19T07:31:55.700Z,6.00
2023-04-19T07:34:22.442Z,6.30
2023-04-19T07:36:49.201Z,4.95
2023-04-19T07:39:16.022Z,7.25
2023-04-19T07:41:42.702Z,9.32
2023-04-19T07:44:09.354Z,7.13
2023-04-19T07:46:36.087Z,4.45
2023-04-19T07:49:02.977Z,8.95
2023-04-19T07:51:29.675Z,6.32
2023-04-19T07:53:56.320Z,6.70
2023-04-19T07:56:23.699Z,7.22
2023-04-19T07:59:04.493Z,7.57
2023-04-19T08:01:35.804Z,7.75
2023-04-19T08:04:03.404Z,7.28
2023-04-19T08:06:30.895Z,4.97
2023-04-19T08:08:57.625Z,6.55
2023-04-19T08:11:25.408Z,4.68
2023-04-19T08:14:04.656Z,7.28
2023-04-19T08:19:08.201Z,10.57
2023-04-19T08:21:41.337Z,8.27
2023-04-19T08:24:08.882Z,8.55
2023-04-19T08:26:35.736Z,11.65
2023-04-19T08:29:02.622Z,10.77
2023-04-19T08:31:29.429Z,13.18
2023-04-19T08:33:57.019Z,7.20
2023-04-19T08:36:37.035Z,8.90
2023-04-19T08:39:29.057Z,9.52
2023-04-19T08:42:04.831Z,12.98
2023-04-19T08:44:37.392Z,6.93
2023-04-19T08:47:07.104Z,8.57
2023-04-19T08:49:40.745Z,9.13
2023-04-19T08:52:12.102Z,10.75
2023-04-19T08:54:39.444Z,13.87
2023-04-19T08:57:08.528Z,12.45
2023-04-19T08:59:35.956Z,13.18
2023-04-19T09:02:03.000Z,15.77
2023-04-19T09:04:37.088Z,15.63
2023-04-19T09:07:04.891Z,13.95
2023-04-19T09:12:01.432Z,13.73
2023-04-19T09:14:29.153Z,12.32
2023-04-19T09:17:17.201Z,13.63
2023-04-19T09:19:48.302Z,16.27
2023-04-19T09:22:15.287Z,16.00
2023-04-19T09:27:14.985Z,19.48
2023-04-19T09:29:41.993Z,16.08
2023-04-19T09:32:08.808Z,17.45
2023-04-19T09:34:35.546Z,16.45
2023-04-19T09:37:21.413Z,17.95
2023-04-19T09:40:03.159Z,17.85
2023-04-19T09:47:46.015Z,19.75
2023-04-19T09:50:22.771Z,17.35
2023-04-19T09:52:52.473Z,19.77
2023-04-19T09:55:27.166Z,17.80
2023-04-19T09:57:55.278Z,17.65
2023-04-19T10:00:23.268Z,18.50
2023-04-19T10:02:55.970Z,18.42
2023-04-19T10:05:24.496Z,18.27
2023-04-19T10:07:54.904Z,18.30
2023-04-19T10:10:40.389Z,19.58
2023-04-19T10:13:19.880Z,16.88
2023-04-19T10:15:52.722Z,18.55
2023-04-19T10:18:25.194Z,17.30
2023-04-19T10:21:01.023Z,21.75
2023-04-19T10:23:29.107Z,18.50
2023-04-19T10:25:57.763Z,17.52
2023-04-19T10:28:24.671Z,21.85
2023-04-19T10:30:57.194Z,19.52
2023-04-19T10:33:28.673Z,21.42
2023-04-19T10:35:59.755Z,16.90
2023-04-19T10:38:51.843Z,21.95
2023-04-19T10:41:19.522Z,21.50
2023-04-19T10:43:55.512Z,23.17
2023-04-19T10:46:22.283Z,18.77
2023-04-19T10:48:58.772Z,15.43
2023-04-19T10:51:32.752Z,19.23
2023-04-19T10:54:04.158Z,21.33
2023-04-19T10:56:33.845Z,19.55
2023-04-19T10:59:11.224Z,20.50
2023-04-19T11:01:43.361Z,20.20
2023-04-19T11:04:15.832Z,19.77
2023-04-19T11:06:52.421Z,21.23
2023-04-19T11:09:28.292Z,17.20
2023-04-19T11:12:08.527Z,18.55
2023-04-19T11:14:44.600Z,19.63
2023-04-19T11:17:19.107Z,20.13
2023-04-19T11:19:56.966Z,23.55
2023-04-19T11:22:41.161Z,20.23
2023-04-19T11:25:19.360Z,16.73
2023-04-19T11:27:52.251Z,21.85
2023-04-19T11:30:28.840Z,17.73
2023-04-19T11:32:57.350Z,17.92
2023-04-19T11:35:30.475Z,19.27
2023-04-19T11:38:00.645Z,19.00
2023-04-19T11:40:27.421Z,18.05
2023-04-19T11:43:02.293Z,16.67
2023-04-19T11:45:38.212Z,18.98
2023-04-19T11:48:07.432Z,20.95
2023-04-19T11:50:45.112Z,15.90
2023-04-19T11:53:22.992Z,22.25
2023-04-19T11:55:54.890Z,17.20
2023-04-19T11:58:33.757Z,17.63
2023-04-19T12:01:07.315Z,18.52
2023-04-19T12:03:58.758Z,23.20
2023-04-19T12:06:27.765Z,15.02
2023-04-19T12:08:56.203Z,15.63
2023-04-19T12:11:26.253Z,16.75
2023-04-19T12:14:12.813Z,17.23
2023-04-19T12:16:41.194Z,19.20
2023-04-19T12:19:17.736Z,16.65
2023-04-19T12:21:55.241Z,18.17
2023-04-19T12:24:24.304Z,17.52
2023-04-19T12:26:57.811Z,18.17
2023-04-19T12:29:26.573Z,18.23
2023-04-19T12:31:53.534Z,19.50
2023-04-19T12:34:21.740Z,21.23
2023-04-19T12:36:48.519Z,21.90
2023-04-19T12:39:15.498Z,22.10
2023-04-19T12:41:42.456Z,22.27
2023-04-19T12:44:09.571Z,19.30
2023-04-19T12:46:36.937Z,19.42
2023-04-19T12:49:03.765Z,18.85
2023-04-19T12:51:31.688Z,18.48
2023-04-19T12:53:58.518Z,20.92
2023-04-19T12:56:27.829Z,23.75
2023-04-19T12:59:03.607Z,21.63
2023-04-19T13:01:30.474Z,22.02
2023-04-19T13:04:16.836Z,21.73
2023-04-19T13:07:01.267Z,18.88
2023-04-19T13:09:28.888Z,18.77
2023-04-19T13:11:56.397Z,18.88
2023-04-19T13:14:39.158Z,18.95
2023-04-19T13:17:05.831Z,18.20
2023-04-19T13:19:32.486Z,21.98
2023-04-19T13:21:59.272Z,19.85
2023-04-19T13:24:25.988Z,16.75
2023-04-19T13:26:52.788Z,19.98
2023-04-19T13:31:57.554Z,18.67
2023-04-19T13:34:24.487Z,20.25
2023-04-19T13:36:51.222Z,18.40
2023-04-19T13:39:18.067Z,21.30
2023-04-19T13:41:50.692Z,21.05
2023-04-19T13:44:32.781Z,19.27
2023-04-19T13:47:01.406Z,21.55
2023-04-19T13:49:28.229Z,23.27
2023-04-19T13:51:55.018Z,18.80
2023-04-19T13:54:24.549Z,24.25
2023-04-19T13:56:52.368Z,22.23
2023-04-19T13:59:19.480Z,25.58
2023-04-19T14:01:46.235Z,23.88
2023-04-19T14:06:54.816Z,27.27
2023-04-19T14:09:21.833Z,26.27
2023-04-19T14:11:49.350Z,28.10
2023-04-19T14:14:16.186Z,23.65
2023-04-19T14:16:43.510Z,20.33
2023-04-19T14:19:10.515Z,27.17
2023-04-19T14:21:42.636Z,20.42
2023-04-19T14:24:29.956Z,20.48
2023-04-19T14:29:39.804Z,20.17
2023-04-19T14:32:21.288Z,19.13
2023-04-19T14:34:52.601Z,19.35
2023-04-19T14:37:21.348Z,22.17
2023-04-19T14:39:48.084Z,39.70
2023-04-19T14:42:14.876Z,24.52
2023-04-19T14:44:41.724Z,23.30
2023-04-19T14:47:08.492Z,24.20
2023-04-19T14:49:35.381Z,25.45
2023-04-19T14:52:03.829Z,22.08
2023-04-19T14:54:31.064Z,23.08
2023-04-19T14:56:57.786Z,23.30
2023-04-19T14:59:24.531Z,21.45
2023-04-19T15:01:51.702Z,22.77
2023-04-19T15:04:18.643Z,22.98
2023-04-19T15:06:45.701Z,25.77
2023-04-19T15:09:12.648Z,19.80
2023-04-19T15:11:39.463Z,21.77
2023-04-19T15:14:06.179Z,22.55
2023-04-19T15:16:33.031Z,23.88
2023-04-19T15:18:59.739Z,25.55
2023-04-19T15:21:26.463Z,31.45
2023-04-19T15:23:53.165Z,23.38
2023-04-19T15:26:23.932Z,22.85
2023-04-19T15:28:50.680Z,24.05
2023-04-19T15:31:17.607Z,24.38
2023-04-19T15:33:44.350Z,24.45
2023-04-19T15:36:11.195Z,26.02
2023-04-19T15:38:38.234Z,23.63
2023-04-19T15:41:05.117Z,28.92
2023-04-19T15:43:31.849Z,29.48
2023-04-19T15:45:58.619Z,25.58
2023-04-19T15:48:26.165Z,29.67
2023-04-19T15:50:52.862Z,24.63
2023-04-19T15:53:19.607Z,28.13
2023-04-19T15:55:49.362Z,30.27
2023-04-19T15:58:16.229Z,25.65
2023-04-19T16:00:43.212Z,27.08
2023-04-19T16:03:12.479Z,26.55
2023-04-19T16:05:40.099Z,25.30
2023-04-19T16:08:09.305Z,30.17
2023-04-19T16:10:36.297Z,26.17
2023-04-19T16:13:06.057Z,29.00
2023-04-19T16:15:33.051Z,27.30
2023-04-19T16:17:59.844Z,31.90
2023-04-19T16:20:26.758Z,26.33
2023-04-19T16:22:53.568Z,26.40
2023-04-19T16:25:20.509Z,26.77
2023-04-19T16:27:47.733Z,31.52
2023-04-19T16:30:16.401Z,28.33
2023-04-19T16:32:43.410Z,28.40
2023-04-19T16:35:10.512Z,25.65
2023-04-19T16:37:37.254Z,30.02
2023-04-19T16:40:10.394Z,27.30
2023-04-19T16:42:39.063Z,29.33
2023-04-19T16:45:07.379Z,26.52
2023-04-19T16:47:35.530Z,40.92
2023-04-19T16:50:03.732Z,27.52
2023-04-19T16:52:32.427Z,29.63
2023-04-19T16:55:00.077Z,30.60
2023-04-19T16:57:26.982Z,31.80
2023-04-19T16:59:53.702Z,31.40
2023-04-19T17:02:20.778Z,31.33
2023-04-19T17:04:48.531Z,28.15
2023-04-19T17:07:15.581Z,28.17
2023-04-19T17:09:42.358Z,31.75
2023-04-19T17:12:09.172Z,32.67
2023-04-19T17:14:36.229Z,30.40
2023-04-19T17:17:02.993Z,33.75
2023-04-19T17:19:29.678Z,31.52
2023-04-19T17:21:56.552Z,32.53
2023-04-19T17:24:24.526Z,34.30
2023-04-19T17:26:54.815Z,34.65
2023-04-19T17:29:21.484Z,36.25
2023-04-19T17:31:49.637Z,44.60
2023-04-19T17:34:16.415Z,33.15
2023-04-19T17:36:43.809Z,30.85
2023-04-19T17:39:12.088Z,34.92
2023-04-19T17:41:39.122Z,35.75
2023-04-19T17:44:05.895Z,34.15
2023-04-19T17:46:34.929Z,36.58
2023-04-19T17:49:01.800Z,33.58
2023-04-19T17:51:30.543Z,36.30
2023-04-19T17:53:58.965Z,35.80
2023-04-19T17:56:25.844Z,32.83
2023-04-19T17:58:52.503Z,35.63
2023-04-19T18:01:19.264Z,35.17
2023-04-19T18:03:46.150Z,35.53
2023-04-19T18:06:15.091Z,37.47
2023-04-19T18:08:43.381Z,45.35
2023-04-19T18:11:13.082Z,37.40
2023-04-19T18:13:39.809Z,41.00
2023-04-19T18:16:06.634Z,37.92
2023-04-19T18:18:33.445Z,40.00
2023-04-19T18:21:04.916Z,42.13
2023-04-19T18:23:31.996Z,38.47
2023-04-19T18:26:02.409Z,37.42
2023-04-19T18:30:55.906Z,37.58
2023-04-19T18:33:22.700Z,32.90
2023-04-19T18:35:49.405Z,38.67
2023-04-19T18:38:16.242Z,38.10
2023-04-19T18:40:42.920Z,39.88
2023-04-19T18:43:09.618Z,38.83
2023-04-19T18:48:40.884Z,35.72
2023-04-19T18:51:11.190Z,38.83
2023-04-19T18:53:38.202Z,39.42
2023-04-19T18:56:05.093Z,40.08
2023-04-19T18:58:32.192Z,38.95
2023-04-19T19:00:58.936Z,38.08
2023-04-19T19:05:58.194Z,41.35
2023-04-19T19:08:25.291Z,38.45
2023-04-19T19:13:21.678Z,42.40
2023-04-19T19:15:48.497Z,39.67
2023-04-19T19:18:15.365Z,39.00
2023-04-19T19:20:42.164Z,42.35
2023-04-19T19:23:08.898Z,40.60
2023-04-19T19:25:35.659Z,45.85
2023-04-19T19:28:08.246Z,44.10
2023-04-19T19:30:39.718Z,44.42
2023-04-19T19:33:06.818Z,48.50
2023-04-19T19:36:02.155Z,45.47
2023-04-19T19:38:28.855Z,50.08
2023-04-19T19:41:34.628Z,46.97
2023-04-19T19:43:56.221Z,49.28
2023-04-19T19:46:23.162Z,50.92
2023-04-19T19:48:53.567Z,48.30
2023-04-19T19:51:52.136Z,45.70
2023-04-19T19:54:08.400Z,43.38
2023-04-19T19:56:35.288Z,45.42
2023-04-19T19:59:02.028Z,43.55
2023-04-19T20:01:28.765Z,43.55
2023-04-19T20:03:56.328Z,45.08
2023-04-19T20:07:29.357Z,43.72
2023-04-19T20:09:54.791Z,40.35
2023-04-19T20:12:21.490Z,41.50
2023-04-19T20:14:48.165Z,40.95
2023-04-19T20:17:14.834Z,42.00
2023-04-19T20:19:42.589Z,38.33
2023-04-19T20:22:09.474Z,39.03
2023-04-19T20:24:38.040Z,38.80
2023-04-19T20:27:04.842Z,37.38
2023-04-19T20:29:31.518Z,36.20
2023-04-19T20:31:58.453Z,43.17
2023-04-19T20:34:25.175Z,42.60
2023-04-19T20:36:54.082Z,42.50
2023-04-19T20:39:21.428Z,39.75
2023-04-19T20:41:48.563Z,43.85
2023-04-19T20:44:17.666Z,39.97
2023-04-19T20:46:47.266Z,40.72
2023-04-19T20:49:14.196Z,38.78
2023-04-19T20:51:41.012Z,38.40
2023-04-19T20:54:07.844Z,38.20
2023-04-19T20:56:34.572Z,36.47
2023-04-19T20:59:01.418Z,37.17
2023-04-19T21:01:28.113Z,42.13
2023-04-19T21:03:55.004Z,37.63
2023-04-19T21:06:23.436Z,39.58
2023-04-19T21:08:50.251Z,36.83
2023-04-19T21:11:16.951Z,39.30
2023-04-19T21:13:43.618Z,40.35
2023-04-19T21:16:10.440Z,38.13
2023-04-19T21:18:37.210Z,42.20
2023-04-19T21:21:04.015Z,42.67
2023-04-19T21:23:30.764Z,41.33
2023-04-19T21:25:57.623Z,39.72
2023-04-19T21:28:25.023Z,38.00
2023-04-19T21:30:53.362Z,42.63
2023-04-19T21:33:20.037Z,43.80
2023-04-19T21:35:46.740Z,41.78
2023-04-19T21:38:13.479Z,42.20
2023-04-19T21:40:40.268Z,44.72
2023-04-19T21:43:06.942Z,44.22
2023-04-19T21:45:34.076Z,38.47
2023-04-19T21:48:03.795Z,43.08
2023-04-19T21:50:30.595Z,38.53
2023-04-19T21:53:00.420Z,43.22
2023-04-19T21:55:27.197Z,41.55
2023-04-19T21:57:55.086Z,41.83
2023-04-19T22:00:22.678Z,44.38
2023-04-19T22:02:51.046Z,42.20
2023-04-19T22:05:19.540Z,40.42
2023-04-19T22:07:49.678Z,41.72
2023-04-19T22:10:17.012Z,46.63
2023-04-19T22:12:57.974Z,42.63
2023-04-19T22:15:29.691Z,42.47
2023-04-19T22:21:32.084Z,45.28
2023-04-19T22:24:01.098Z,44.47
2023-04-19T22:26:28.974Z,46.85
2023-04-19T22:29:00.346Z,47.53
2023-04-19T22:31:27.050Z,44.80
2023-04-19T22:33:53.744Z,45.80
2023-04-19T22:36:24.100Z,46.78
2023-04-19T22:38:51.169Z,45.33
2023-04-19T22:41:20.949Z,43.80
2023-04-19T22:43:47.649Z,44.25
2023-04-19T22:46:14.383Z,45.45
2023-04-19T22:48:41.695Z,43.95
2023-04-19T22:51:08.415Z,48.83
2023-04-19T22:53:36.254Z,40.40
2023-04-19T22:56:03.045Z,41.85
2023-04-19T22:58:29.705Z,44.28
2023-04-19T23:00:56.472Z,39.28
2023-04-19T23:03:23.179Z,41.42
2023-04-19T23:05:49.860Z,40.72
2023-04-19T23:08:16.537Z,40.58
2023-04-19T23:10:43.626Z,41.72
2023-04-19T23:13:10.399Z,37.38
2023-04-19T23:15:38.333Z,41.42
2023-04-19T23:18:05.286Z,38.22
2023-04-19T23:20:32.081Z,38.15
2023-04-19T23:22:59.416Z,39.88
2023-04-19T23:25:26.291Z,38.28
2023-04-19T23:27:53.016Z,40.17
2023-04-19T23:30:19.949Z,39.60
2023-04-19T23:32:46.690Z,39.17
2023-04-19T23:35:13.486Z,38.08
2023-04-19T23:37:41.025Z,40.50
2023-04-19T23:40:09.960Z,38.22
2023-04-19T23:42:38.283Z,40.90
2023-04-19T23:45:06.764Z,34.33
2023-04-19T23:47:34.202Z,37.78
2023-04-19T23:50:01.150Z,39.83
2023-04-19T23:52:27.870Z,37.65
2023-04-19T23:54:54.517Z,37.92
2023-04-19T23:57:21.380Z,39.53
2023-04-19T23:59:48.193Z,39.13
